Time;durP1;ratioP1;P1;durP2;ratioP2;P2;SDS_P1;SDS_P2;PMS_P1;PMS_P2;Temp;Humidity;BMP_temperature;BMP_pressure;BME280_temperature;BME280_humidity;BME280_pressure;Samples;Min_cycle;Max_cycle;Signal;HPM_P1;HPM_P2
2023/04/17 00:00:42;;;;;;;37.03;28.50;;;;;;;7.80;100.00;102354.31;5141480;27;20031;-93
2023/04/17 00:03:10;;;;;;;36.83;28.52;;;;;;;7.82;100.00;102364.00;5139079;27;20074;-92
2023/04/17 00:05:36;;;;;;;33.97;27.63;;;;;;;7.77;100.00;102356.97;5137086;27;20559;-93
2023/04/17 00:08:01;;;;;;;38.03;29.08;;;;;;;7.78;100.00;102351.69;5129686;27;20027;-93
2023/04/17 00:10:27;;;;;;;36.42;28.33;;;;;;;7.80;100.00;102352.53;5138991;27;20468;-93
2023/04/17 00:12:52;;;;;;;38.15;28.80;;;;;;;7.79;100.00;102353.44;5155825;27;20107;-92
2023/04/17 00:15:17;;;;;;;35.72;27.67;;;;;;;7.78;100.00;102351.69;5133633;27;20042;-93
2023/04/17 00:17:43;;;;;;;37.55;28.35;;;;;;;7.76;100.00;102355.25;5155000;27;20042;-94
2023/04/17 00:20:12;;;;;;;35.28;27.50;;;;;;;7.69;100.00;102343.84;5156130;27;20020;-94
2023/04/17 00:22:38;;;;;;;34.05;27.52;;;;;;;7.72;100.00;102349.97;5135294;27;20011;-94
2023/04/17 00:25:04;;;;;;;33.78;27.80;;;;;;;7.64;100.00;102343.91;5153049;27;20023;-92
2023/04/17 00:27:29;;;;;;;37.75;27.98;;;;;;;7.61;100.00;102341.34;5154654;27;20045;-93
2023/04/17 00:29:55;;;;;;;37.50;28.90;;;;;;;7.57;100.00;102341.41;5160299;27;20035;-93
2023/04/17 00:32:23;;;;;;;37.60;28.67;;;;;;;7.54;100.00;102338.78;5156584;27;20051;-93
2023/04/17 00:34:51;;;;;;;41.30;29.58;;;;;;;7.48;100.00;102342.38;5148061;27;20038;-93
2023/04/17 00:37:17;;;;;;;36.70;27.98;;;;;;;7.51;100.00;102336.19;5157572;27;20058;-92
2023/04/17 00:39:45;;;;;;;40.42;29.35;;;;;;;7.52;100.00;102345.88;5134029;27;20031;-92
2023/04/17 00:42:10;;;;;;;35.10;28.02;;;;;;;7.54;100.00;102344.97;5144990;27;20023;-93
2023/04/17 00:44:36;;;;;;;39.72;29.85;;;;;;;7.46;100.00;102337.13;5136456;27;20100;-94
2023/04/17 00:47:01;;;;;;;41.33;30.67;;;;;;;7.55;100.00;102344.06;5143314;27;20103;-93
2023/04/17 00:49:28;;;;;;;40.00;28.58;;;;;;;7.51;100.00;102336.19;5134065;27;20015;-92
2023/04/17 00:51:53;;;;;;;39.80;29.98;;;;;;;7.54;100.00;102338.78;5119012;27;20054;-93
2023/04/17 00:54:21;;;;;;;34.83;28.05;;;;;;;7.59;100.00;102343.13;5142945;27;20485;-93
2023/04/17 00:56:48;;;;;;;37.95;27.65;;;;;;;7.61;100.00;102343.13;5139219;27;20027;-92
2023/04/17 00:59:16;;;;;;;35.70;27.65;;;;;;;7.56;100.00;102337.84;5140346;27;20512;-94
2023/04/17 01:01:42;;;;;;;34.05;28.13;;;;;;;7.56;100.00;102329.03;5142424;27;20043;-93
2023/04/17 01:04:08;;;;;;;36.75;28.40;;;;;;;7.52;100.00;102319.38;5136291;27;20057;-92
2023/04/17 01:06:35;;;;;;;35.33;27.70;;;;;;;7.59;100.00;102332.50;5123267;27;20022;-93
2023/04/17 01:09:01;;;;;;;35.55;26.95;;;;;;;7.50;100.00;102316.75;5125815;27;20027;-93
2023/04/17 01:11:27;;;;;;;35.97;28.00;;;;;;;7.51;100.00;102331.75;5147872;27;20074;-94
2023/04/17 01:13:55;;;;;;;35.22;28.83;;;;;;;7.52;100.00;102336.13;5134599;27;20156;-94
2023/04/17 01:16:21;;;;;;;35.40;27.35;;;;;;;7.51;100.00;102330.88;5138907;27;20412;-93
2023/04/17 01:18:47;;;;;;;37.58;28.73;;;;;;;7.50;100.00;102340.59;5116538;27;20024;-94
2023/04/17 01:21:15;;;;;;;36.38;28.35;;;;;;;7.48;100.00;102332.69;5141986;27;20019;-95
2023/04/17 01:23:45;;;;;;;34.40;28.27;;;;;;;7.51;100.00;102333.53;5140201;27;20031;-92
2023/04/17 01:26:37;;;;;;;38.25;28.88;;;;;;;7.53;100.00;102337.03;5142977;27;20031;-93
2023/04/17 01:29:05;;;;;;;37.72;28.08;;;;;;;7.53;100.00;102337.03;5134788;27;20065;-93
2023/04/17 01:31:31;;;;;;;35.05;27.85;;;;;;;7.53;100.00;102327.31;5142130;27;20029;-94
2023/04/17 01:33:56;;;;;;;37.67;28.20;;;;;;;7.44;100.00;102336.28;5136607;27;20051;-95
2023/04/17 01:36:26;;;;;;;35.65;29.58;;;;;;;7.46;100.00;102341.53;5120946;27;20669;-93
2023/04/17 01:38:51;;;;;;;39.00;28.95;;;;;;;7.49;100.00;102331.78;5138379;27;20035;-94
2023/04/17 01:41:17;;;;;;;37.35;29.30;;;;;;;7.46;100.00;102336.25;5130526;27;20096;-93
2023/04/17 01:43:45;;;;;;;36.85;28.30;;;;;;;7.46;100.00;102347.72;5137256;27;20023;-93
2023/04/17 01:46:10;;;;;;;36.35;28.58;;;;;;;7.44;100.00;102330.97;5136775;27;20027;-94
2023/04/17 01:48:36;;;;;;;31.73;26.73;;;;;;;7.46;100.00;102341.53;5136604;27;20045;-95
2023/04/17 01:51:02;;;;;;;39.25;29.25;;;;;;;7.47;100.00;102336.22;5142448;27;20100;-93
2023/04/17 01:53:29;;;;;;;36.92;29.30;;;;;;;7.40;100.00;102334.56;5138331;27;20024;-94
2023/04/17 01:55:54;;;;;;;39.75;29.63;;;;;;;7.45;100.00;102345.09;5140079;27;20019;-95
2023/04/17 01:58:20;;;;;;;38.95;29.27;;;;;;;7.45;100.00;102340.66;5146167;27;20129;-94
2023/04/17 02:00:47;;;;;;;36.63;29.30;;;;;;;7.45;100.00;102345.09;5145611;27;20114;-93
2023/04/17 02:03:12;;;;;;;35.28;27.80;;;;;;;7.41;100.00;102338.97;5139774;28;20023;-93
2023/04/17 02:05:37;;;;;;;33.38;27.50;;;;;;;7.34;100.00;102329.34;5137552;27;20046;-94
2023/04/17 02:08:03;;;;;;;36.08;27.48;;;;;;;7.37;100.00;102329.31;5142587;27;20014;-94
2023/04/17 02:10:29;;;;;;;33.22;27.92;;;;;;;7.37;100.00;102339.91;5132135;27;20045;-93
2023/04/17 02:12:54;;;;;;;34.28;28.65;;;;;;;7.33;100.00;102334.66;5147304;27;20043;-93
2023/04/17 02:25:35;;;;;;;39.05;29.75;;;;;;;7.07;100.00;102282.94;5043785;28;20053;-93
2023/04/17 02:28:01;;;;;;;37.90;30.45;;;;;;;7.16;100.00;102303.13;5049831;28;20045;-93
2023/04/17 02:30:27;;;;;;;35.72;29.67;;;;;;;7.10;100.00;102293.47;5054989;28;20021;-92
2023/04/17 02:32:53;;;;;;;37.35;29.30;;;;;;;7.33;100.00;102340.84;5054273;28;20021;-93
2023/04/17 02:35:25;;;;;;;36.47;28.75;;;;;;;7.08;100.00;102295.25;5031073;28;20025;-92
2023/04/17 02:37:55;;;;;;;36.60;28.83;;;;;;;7.05;100.00;102282.06;5055688;28;20033;-93
2023/04/17 02:40:21;;;;;;;41.47;28.00;;;;;;;7.32;100.00;102333.78;5048588;28;20028;-92
2023/04/17 02:42:46;;;;;;;36.90;28.55;;;;;;;7.13;100.00;102297.84;5045261;28;20033;-94
2023/04/17 02:45:15;;;;;;;36.58;29.33;;;;;;;7.14;100.00;102307.53;5043490;28;20553;-93
2023/04/17 02:47:40;;;;;;;38.92;30.20;;;;;;;7.31;100.00;102337.31;5048160;28;20034;-92
2023/04/17 02:50:07;;;;;;;39.72;29.70;;;;;;;7.08;100.00;102308.50;5034938;28;20052;-92
2023/04/17 02:52:33;;;;;;;38.90;29.98;;;;;;;7.10;100.00;102304.06;5051852;28;20081;-93
2023/04/17 02:55:01;;;;;;;40.05;29.52;;;;;;;7.33;100.00;102350.56;5057686;28;20021;-93
2023/04/17 02:57:29;;;;;;;36.35;28.83;;;;;;;7.08;100.00;102310.28;5054328;28;20064;-94
2023/04/17 02:59:54;;;;;;;36.65;28.73;;;;;;;7.06;100.00;102301.47;5071406;28;20051;-93
2023/04/17 03:02:24;;;;;;;37.33;29.38;;;;;;;7.09;100.00;102312.91;5060332;28;20013;-94
2023/04/17 03:04:53;;;;;;;38.53;30.45;;;;;;;7.05;100.00;102312.97;5048327;28;20135;-91
2023/04/17 03:07:23;;;;;;;37.40;29.83;;;;;;;7.04;100.00;102320.03;5055986;28;20013;-93
2023/04/17 03:09:49;;;;;;;40.53;31.17;;;;;;;6.99;100.00;102296.25;5060409;28;20018;-93
2023/04/17 03:12:15;;;;;;;39.83;29.58;;;;;;;7.28;100.00;102355.91;5050906;28;20064;-92
2023/04/17 03:14:41;;;;;;;40.35;30.13;;;;;;;7.16;100.00;102342.84;5039637;28;20048;-92
2023/04/17 03:17:07;;;;;;;42.60;31.40;;;;;;;7.09;100.00;102327.91;5037574;28;20029;-92
2023/04/17 03:19:33;;;;;;;42.03;31.63;;;;;;;7.02;100.00;102310.34;5049514;28;20482;-93
2023/04/17 03:22:02;;;;;;;42.50;30.20;;;;;;;6.94;100.00;102306.03;5047233;28;20022;-92
2023/04/17 03:24:28;;;;;;;40.88;31.13;;;;;;;7.19;100.00;102353.38;5030083;28;20054;-92
2023/04/17 03:26:53;;;;;;;39.78;29.98;;;;;;;7.03;100.00;102322.72;5049917;28;20394;-92
2023/04/17 03:29:22;;;;;;;42.08;30.02;;;;;;;7.08;100.00;102340.28;5050619;28;20021;-93
2023/04/17 03:31:47;;;;;;;40.45;31.13;;;;;;;6.90;100.00;102298.16;5044454;28;20030;-94
2023/04/17 03:34:13;;;;;;;42.03;30.80;;;;;;;6.99;100.00;102319.22;5051004;28;20022;-94
2023/04/17 03:36:45;;;;;;;40.92;31.15;;;;;;;6.90;100.00;102301.69;5043452;28;20426;-92
2023/04/17 03:39:11;;;;;;;40.45;30.52;;;;;;;6.81;100.00;102290.31;5038551;28;20033;-91
2023/04/17 03:41:37;;;;;;;44.58;30.45;;;;;;;6.82;100.00;102289.44;5016307;28;20028;-93
2023/04/17 03:44:03;;;;;;;42.63;30.75;;;;;;;6.82;100.00;102300.91;5036486;28;20021;-93
2023/04/17 03:46:29;;;;;;;43.03;30.95;;;;;;;6.90;100.00;102316.69;5038863;28;20037;-94
2023/04/17 03:48:54;;;;;;;42.47;30.92;;;;;;;6.74;100.00;102289.53;5023137;28;20056;-93
2023/04/17 03:51:19;;;;;;;42.78;32.15;;;;;;;6.80;100.00;102302.66;5029592;28;20121;-94
2023/04/17 03:53:45;;;;;;;44.90;31.52;;;;;;;6.88;100.00;102315.81;5031872;28;20021;-92
2023/04/17 03:56:10;;;;;;;42.05;30.60;;;;;;;6.87;100.00;102320.25;5039465;28;20697;-93
2023/04/17 03:58:36;;;;;;;42.30;31.98;;;;;;;6.74;100.00;102303.63;5023446;28;20029;-92
2023/04/17 04:01:01;;;;;;;44.45;32.78;;;;;;;6.99;100.00;102351.84;5039336;28;20072;-93
2023/04/17 04:03:27;;;;;;;43.22;32.47;;;;;;;6.71;100.00;102302.78;5052616;28;20025;-91
2023/04/17 04:05:53;;;;;;;42.40;32.17;;;;;;;6.83;100.00;102318.53;5054138;28;20492;-94
2023/04/17 04:08:19;;;;;;;40.95;31.42;;;;;;;6.83;100.00;102318.53;5045965;28;20024;-93
2023/04/17 04:10:45;;;;;;;40.03;32.22;;;;;;;6.76;100.00;102310.66;5046431;28;20029;-94
2023/04/17 04:13:11;;;;;;;41.47;32.17;;;;;;;6.88;100.00;102327.28;5035487;28;20029;-94
2023/04/17 04:15:39;;;;;;;41.15;31.85;;;;;;;6.88;100.00;102329.91;5041276;28;20022;-93
2023/04/17 04:18:05;;;;;;;42.95;32.75;;;;;;;6.65;100.00;102297.56;5040150;28;20021;-91
2023/04/17 04:20:30;;;;;;;44.42;33.15;;;;;;;6.61;100.00;102295.84;5037940;28;20031;-93
2023/04/17 04:22:58;;;;;;;46.35;33.65;;;;;;;6.92;100.00;102352.81;5023564;28;20036;-94
2023/04/17 04:25:24;;;;;;;44.00;33.10;;;;;;;6.83;100.00;102333.53;5035584;28;20052;-92
2023/04/17 04:27:50;;;;;;;44.17;34.67;;;;;;;6.63;100.00;102305.50;5038153;28;20045;-92
2023/04/17 04:30:15;;;;;;;43.15;33.72;;;;;;;6.73;100.00;102336.28;5021536;28;20080;-93
2023/04/17 04:32:51;;;;;;;46.10;33.63;;;;;;;6.56;100.00;102306.47;5019131;28;20037;-92
2023/04/17 04:35:17;;;;;;;45.13;34.53;;;;;;;6.69;100.00;102331.91;5019595;28;20072;-94
2023/04/17 04:37:45;;;;;;;43.50;33.25;;;;;;;6.73;100.00;102338.06;5005737;28;20107;-94
2023/04/17 04:40:13;;;;;;;45.83;34.40;;;;;;;6.79;100.00;102356.50;5007267;28;20040;-93
2023/04/17 04:42:40;;;;;;;47.05;34.05;;;;;;;6.67;100.00;102338.97;5025274;28;20052;-93
2023/04/17 04:45:07;;;;;;;48.45;33.95;;;;;;;6.70;100.00;102344.25;5020192;28;20123;-92
2023/04/17 04:47:35;;;;;;;45.65;32.35;;;;;;;6.62;100.00;102324.06;5028739;28;20044;-91
2023/04/17 04:50:01;;;;;;;46.58;34.78;;;;;;;6.80;100.00;102352.06;5034484;28;20021;-93
2023/04/17 04:52:27;;;;;;;45.22;33.30;;;;;;;6.74;100.00;102345.09;5034119;28;20029;-93
2023/04/17 04:54:52;;;;;;;48.75;35.67;;;;;;;6.63;100.00;102324.03;5044887;28;20036;-92
2023/04/17 04:57:17;;;;;;;48.85;36.10;;;;;;;6.68;100.00;102327.50;5024393;28;20028;-92
2023/04/17 04:59:45;;;;;;;48.15;35.53;;;;;;;6.83;100.00;102366.16;5022243;28;20033;-94
2023/04/17 05:02:13;;;;;;;47.47;35.00;;;;;;;6.92;100.00;102379.28;5020899;28;20017;-93
2023/04/17 05:04:38;;;;;;;49.65;35.75;;;;;;;6.67;100.00;102340.75;5034974;28;20029;-93
2023/04/17 05:07:04;;;;;;;49.70;36.47;;;;;;;6.91;100.00;102377.53;5044950;28;20513;-94
2023/04/17 05:09:41;;;;;;;;;;;;;;;;;;;;;
2023/04/17 05:12:09;;;;;;;51.65;37.08;;;;;;;6.70;100.00;102353.97;5033904;28;20382;-93
2023/04/17 05:14:35;;;;;;;53.40;37.47;;;;;;;6.65;100.00;102345.19;5034016;28;20037;-94
2023/04/17 05:17:01;;;;;;;50.85;36.50;;;;;;;6.77;100.00;102360.91;5019238;28;20043;-95
2023/04/17 05:19:29;;;;;;;52.45;37.70;;;;;;;6.69;100.00;102350.44;5030415;28;20024;-93
2023/04/17 05:21:54;;;;;;;52.75;36.70;;;;;;;6.72;100.00;102349.50;5032492;28;20055;-93
2023/04/17 05:24:27;;;;;;;55.75;38.20;;;;;;;6.69;100.00;102362.78;5047597;28;20025;-92
2023/04/17 05:26:52;;;;;;;55.63;38.15;;;;;;;6.64;100.00;102343.41;5052934;28;20041;-93
2023/04/17 05:29:18;;;;;;;56.92;40.08;;;;;;;6.60;100.00;102347.00;5056890;28;20332;-93
2023/04/17 05:31:44;;;;;;;57.45;40.42;;;;;;;6.62;100.00;102353.16;5051278;28;20037;-94
2023/04/17 05:34:09;;;;;;;58.33;39.83;;;;;;;6.69;100.00;102368.97;5058335;28;20072;-94
2023/04/17 05:36:35;;;;;;;56.17;38.85;;;;;;;6.64;100.00;102356.66;5059942;28;20037;-94
2023/04/17 05:39:01;;;;;;;59.03;40.83;;;;;;;6.75;100.00;102375.94;5051700;28;20013;-92
2023/04/17 05:41:30;;;;;;;55.58;39.45;;;;;;;6.56;100.00;102356.72;5048672;28;20033;-93
2023/04/17 05:43:56;;;;;;;59.55;40.75;;;;;;;6.57;100.00;102360.28;5039570;28;20013;-93
2023/04/17 05:46:21;;;;;;;58.08;39.55;;;;;;;6.69;100.00;102376.03;5030965;28;20319;-94
2023/04/17 05:48:50;;;;;;;55.88;39.85;;;;;;;6.63;100.00;102369.00;5050938;28;20080;-93
2023/04/17 05:51:15;;;;;;;64.88;42.28;;;;;;;6.61;100.00;102370.81;5059007;28;20460;-93
2023/04/17 05:53:43;;;;;;;63.45;42.63;;;;;;;6.64;100.00;102365.47;5053331;28;20021;-94
2023/04/17 05:56:11;;;;;;;57.95;39.97;;;;;;;6.82;100.00;102384.72;5048520;28;20030;-93
2023/04/17 05:58:37;;;;;;;60.10;41.17;;;;;;;6.74;100.00;102374.19;5035397;28;20039;-94
2023/04/17 06:01:05;;;;;;;58.33;41.13;;;;;;;6.75;100.00;102375.94;5045722;28;20033;-93
2023/04/17 06:03:31;;;;;;;61.22;43.63;;;;;;;6.93;100.00;102410.16;5049661;28;20021;-96
2023/04/17 06:05:57;;;;;;;57.55;40.35;;;;;;;6.72;100.00;102368.03;5055232;28;20045;-93
2023/04/17 06:08:27;;;;;;;62.63;41.97;;;;;;;6.70;100.00;102367.19;5050949;28;20052;-93
2023/04/17 06:10:55;;;;;;;57.72;41.08;;;;;;;6.76;100.00;102367.09;5062102;28;20063;-93
2023/04/17 06:13:23;;;;;;;59.72;39.38;;;;;;;6.88;100.00;102393.44;5064902;28;20028;-94
2023/04/17 06:15:50;;;;;;;61.33;40.33;;;;;;;6.95;100.00;102396.91;5067063;28;20079;-92
2023/04/17 06:18:16;;;;;;;59.05;41.88;;;;;;;6.93;100.00;102393.41;5055755;28;20009;-94
2023/04/17 06:20:42;;;;;;;62.97;42.30;;;;;;;6.86;100.00;102382.00;5056610;28;20025;-91
2023/04/17 06:23:08;;;;;;;57.72;40.80;;;;;;;6.81;100.00;102364.41;5063092;28;20025;-93
2023/04/17 06:25:33;;;;;;;60.95;42.30;;;;;;;6.94;100.00;102374.88;5051725;28;20053;-91
2023/04/17 06:28:01;;;;;;;55.90;39.78;;;;;;;6.89;100.00;102371.38;5039368;28;20028;-93
2023/04/17 06:30:27;;;;;;;55.95;40.10;;;;;;;6.91;100.00;102379.31;5048987;28;20108;-92
2023/04/17 06:33:05;;;;;;;55.03;39.75;;;;;;;7.10;100.00;102409.09;5019180;28;20113;-92
2023/04/17 06:35:36;;;;;;;54.33;39.95;;;;;;;7.17;100.00;102432.84;5034336;28;20394;-93
2023/04/17 06:38:12;;;;;;;51.35;38.75;;;;;;;7.20;100.00;102422.22;5029800;28;20032;-94
2023/04/17 06:40:40;;;;;;;50.05;38.10;;;;;;;7.04;100.00;102385.34;5034967;28;20037;-93
2023/04/17 06:43:38;;;;;;;;;;;;;;;;;;;;;
2023/04/17 06:46:09;;;;;;;48.70;35.83;;;;;;;7.23;100.00;102389.50;5031281;28;20112;-92
2023/04/17 06:48:36;;;;;;;43.75;34.25;;;;;;;7.52;100.00;102441.25;5035064;28;20070;-92
2023/04/17 06:51:14;;;;;;;42.20;32.58;;;;;;;7.37;100.00;102414.06;5045238;28;20064;-92
2023/04/17 06:53:40;;;;;;;38.17;31.98;;;;;;;7.33;100.00;102392.94;5036571;28;20871;-94
2023/04/17 06:56:22;;;;;;;38.30;32.17;;;;;;;7.43;100.00;102394.56;5041826;28;20064;-93
2023/04/17 06:59:00;;;;;;;41.78;33.30;;;;;;;7.60;100.00;102415.53;5042452;28;20033;-93
2023/04/17 07:01:39;;;;;;;45.05;34.63;;;;;;;7.57;100.00;102419.13;5032059;28;20112;-92
2023/04/17 07:04:23;;;;;;;;;;;;;;;;;;;;;
2023/04/17 07:10:54;;;;;;;;;;;;;;;;;;;;;
2023/04/17 07:13:32;;;;;;;39.78;31.73;;;;;;;7.88;100.00;102456.66;5037331;28;20041;-91
2023/04/17 07:16:27;;;;;;;38.25;32.13;;;;;;;7.70;100.00;102419.81;5032503;28;20099;-91
2023/04/17 07:19:12;;;;;;;36.92;31.27;;;;;;;7.86;100.00;102447.88;5040736;28;20056;-93
2023/04/17 07:21:38;;;;;;;41.25;32.60;;;;;;;7.76;100.00;102432.97;5029073;28;20401;-95
2023/04/17 07:24:08;;;;;;;41.25;31.85;;;;;;;7.67;100.00;102419.84;5029486;28;20053;-93
2023/04/17 07:26:44;;;;;;;38.35;31.63;;;;;;;7.67;100.00;102426.03;5025016;28;20040;-92
2023/04/17 07:29:12;;;;;;;35.00;30.90;;;;;;;7.79;100.00;102448.84;5039511;28;20071;-93
2023/04/17 07:31:38;;;;;;;38.20;31.48;;;;;;;7.77;100.00;102425.91;5028334;28;20038;-91
2023/04/17 07:41:33;;;;;;;;;;;;;;;;;;;;;
2023/04/17 07:48:15;;;;;;;37.88;31.67;;;;;;;8.00;100.00;102437.06;4960115;28;20027;-94
2023/04/17 07:51:04;;;;;;;42.85;34.92;;;;;;;8.04;100.00;102451.16;4933462;29;20198;-92
2023/04/17 07:54:16;;;;;;;40.22;34.05;;;;;;;7.95;100.00;102430.97;4954393;28;20060;-94
2023/04/17 07:57:22;;;;;;;;;;;;;;;;;;;;;
2023/04/17 08:00:16;;;;;;;;;;;;;;;;;;;;;
2023/04/17 08:02:46;;;;;;;;;;;;;;;8.42;100.00;102493.91;4951723;29;20055;-93
2023/04/17 08:08:46;;;;;;;;;;;;;;;;;;;;;
2023/04/17 08:18:08;;;;;;;37.97;31.52;;;;;;;8.59;100.00;102471.53;4919074;29;20107;-93
2023/04/17 08:20:47;;;;;;;;;;;;;;;;;;;;;
2023/04/17 08:23:12;;;;;;;39.60;31.42;;;;;;;8.53;100.00;102450.41;4915976;29;20036;-95
2023/04/17 08:25:38;;;;;;;38.88;31.90;;;;;;;8.65;100.00;102461.72;4915568;29;20566;-93
2023/04/17 08:28:06;;;;;;;37.85;31.00;;;;;;;8.75;100.00;102470.38;4976635;28;20043;-94
2023/04/17 08:30:36;;;;;;;38.78;30.98;;;;;;;8.86;100.00;102457.81;4978020;28;20031;-96
2023/04/17 08:33:02;;;;;;;36.28;30.73;;;;;;;8.78;100.00;102446.44;5000623;28;20089;-96
2023/04/17 08:35:27;;;;;;;36.72;30.20;;;;;;;8.91;100.00;102466.56;4992480;28;20042;-95
2023/04/17 08:37:58;;;;;;;39.47;31.80;;;;;;;8.92;100.00;102464.78;4980244;28;20038;-94
2023/04/17 08:40:25;;;;;;;37.10;29.98;;;;;;;9.17;99.94;102494.41;4985643;28;20034;-94
2023/04/17 08:43:01;;;;;;;36.50;31.35;;;;;;;9.16;98.62;102482.06;4976471;28;20022;-93
2023/04/17 08:45:26;;;;;;;35.70;29.55;;;;;;;9.28;98.73;102504.84;4964992;28;20121;-92
2023/04/17 08:47:52;;;;;;;36.78;30.48;;;;;;;9.39;98.57;102486.91;4974131;28;20119;-93
2023/04/17 08:50:20;;;;;;;36.50;30.10;;;;;;;9.55;97.53;102477.72;4973937;28;20038;-95
2023/04/17 08:52:50;;;;;;;36.00;30.80;;;;;;;9.43;96.60;102473.53;4980179;28;20027;-94
2023/04/17 08:55:22;;;;;;;35.80;30.50;;;;;;;9.44;97.13;102454.00;5032056;28;20041;-92
2023/04/17 08:58:06;;;;;;;37.75;30.80;;;;;;;9.61;96.20;102460.75;5022582;28;20026;-94
2023/04/17 09:00:31;;;;;;;;;;;;;;;10.27;96.45;102494.78;5030833;28;20036;-94
2023/04/17 09:03:02;;;;;;;35.80;30.63;;;;;;;9.98;91.71;102448.41;5025936;28;20032;-93
2023/04/17 09:08:23;;;;;;;36.35;29.38;;;;;;;11.11;88.22;102499.81;5031740;28;20029;-93
2023/04/17 09:10:53;;;;;;;35.65;30.48;;;;;;;10.85;87.63;102463.19;5020499;28;20401;-94
2023/04/17 09:13:30;;;;;;;35.15;28.95;;;;;;;10.58;88.39;102460.34;5039773;28;20036;-93
2023/04/17 09:16:30;;;;;;;36.00;30.15;;;;;;;10.52;91.12;102460.47;5035261;28;20052;-94
2023/04/17 09:19:05;;;;;;;33.22;28.10;;;;;;;10.68;90.46;102499.13;5031864;28;20051;-93
2023/04/17 09:21:31;;;;;;;36.45;28.88;;;;;;;10.53;89.61;102482.63;5036096;28;20029;-93
2023/04/17 09:24:12;;;;;;;35.42;29.40;;;;;;;10.70;89.35;102502.63;5043363;28;20087;-93
2023/04/17 09:26:38;;;;;;;37.03;28.83;;;;;;;10.82;87.58;102465.94;5032020;28;20041;-93
2023/04/17 09:29:17;;;;;;;35.80;28.92;;;;;;;11.03;86.05;102459.16;5041900;28;20021;-92
2023/04/17 09:31:43;;;;;;;34.67;29.05;;;;;;;11.50;84.34;102489.84;5017852;28;20534;-94
2023/04/17 09:34:29;;;;;;;;;;;;;;;;;;;;;
2023/04/17 09:36:55;;;;;;;34.55;29.27;;;;;;;11.37;83.52;102492.00;5038712;28;20120;-91
2023/04/17 09:39:24;;;;;;;38.80;30.75;;;;;;;11.57;83.11;102466.53;5033522;28;20025;-91
2023/04/17 09:42:13;;;;;;;;;;;;;;;;;;;;;
2023/04/17 09:44:39;;;;;;;34.75;29.98;;;;;;;12.41;78.76;102469.28;5031598;28;20037;-90
2023/04/17 09:47:08;;;;;;;34.75;27.85;;;;;;;12.07;77.28;102453.47;5019824;28;20128;-92
2023/04/17 09:49:48;;;;;;;33.70;27.80;;;;;;;12.12;78.88;102491.56;5027155;28;20021;-92
2023/04/17 09:52:23;;;;;;;33.00;27.13;;;;;;;12.35;77.00;102489.06;5042965;28;20138;-93
2023/04/17 09:55:22;;;;;;;31.83;27.13;;;;;;;13.15;74.59;102500.59;5047972;28;20029;-90
2023/04/17 10:01:45;;;;;;;;;;;;;;;;;;;;;
2023/04/17 10:07:42;;;;;;;;;;;;;;;;;;;;;
2023/04/17 10:10:47;;;;;;;34.60;27.23;;;;;;;13.39;71.95;102501.56;5024337;28;20380;-90
2023/04/17 10:13:28;;;;;;;31.30;27.50;;;;;;;12.95;73.80;102490.59;5024027;28;20032;-88
2023/04/17 10:16:06;;;;;;;;;;;;;;;;;;;;;
2023/04/17 10:18:37;;;;;;;32.33;28.50;;;;;;;12.43;73.34;102481.69;5035548;28;20024;-86
2023/04/17 10:21:27;;;;;;;32.60;28.05;;;;;;;12.27;75.29;102460.88;5042468;28;20124;-91
2023/04/17 10:24:52;;;;;;;;;;;;;;;;;;;;;
2023/04/17 10:45:24;;;;;;;30.77;27.40;;;;;;;16.18;58.72;102471.06;4835704;26;20053;-84
2023/04/17 10:47:57;;;;;;;31.13;26.73;;;;;;;15.98;59.36;102481.88;5014338;28;20143;-81
2023/04/17 10:50:27;;;;;;;29.80;26.17;;;;;;;15.48;60.59;102469.84;5032701;28;20037;-82
2023/04/17 10:55:21;;;;;;;31.10;25.40;;;;;;;16.17;57.86;102478.22;4992657;28;20061;-83
2023/04/17 10:58:03;;;;;;;30.55;26.13;;;;;;;15.84;60.77;102482.50;5005943;28;20029;-82
2023/04/17 11:05:46;;;;;;;29.55;26.35;;;;;;;14.73;63.11;102478.50;5110418;23;20105;-81
2023/04/17 11:08:12;;;;;;;32.53;27.13;;;;;;;15.81;60.47;102470.13;5019222;28;20049;-80
2023/04/17 11:10:38;;;;;;;30.20;25.95;;;;;;;16.72;57.39;102468.34;5025978;28;20071;-80
2023/04/17 11:13:03;;;;;;;29.67;25.55;;;;;;;17.29;55.65;102469.88;5027014;28;20470;-82
2023/04/17 11:15:30;;;;;;;29.55;25.65;;;;;;;16.79;55.32;102470.69;5024301;28;20037;-80
2023/04/17 11:17:57;;;;;;;28.80;25.63;;;;;;;16.32;57.58;102465.00;5019574;28;20041;-81
2023/04/17 11:20:24;;;;;;;29.05;25.65;;;;;;;17.23;55.37;102470.22;5024395;28;20663;-81
2023/04/17 11:22:50;;;;;;;28.77;25.25;;;;;;;17.18;54.09;102467.75;5027642;28;20022;-81
2023/04/17 11:25:25;;;;;;;25.90;23.10;;;;;;;16.47;56.09;102464.25;5030517;28;20441;-81
2023/04/17 11:27:54;;;;;;;27.45;24.10;;;;;;;16.02;57.61;102456.63;5024265;28;20025;-81
2023/04/17 11:30:26;;;;;;;29.55;24.67;;;;;;;15.54;57.83;102461.47;5026365;28;20033;-82
2023/04/17 11:32:52;;;;;;;28.10;24.30;;;;;;;15.96;57.86;102460.44;5025113;28;20040;-81
2023/04/17 11:35:23;;;;;;;27.00;23.83;;;;;;;16.65;54.91;102460.63;5025318;28;20216;-80
2023/04/17 11:38:07;;;;;;;25.25;22.45;;;;;;;18.05;52.46;102459.41;5024303;28;20036;-81
2023/04/17 11:40:33;;;;;;;23.63;21.15;;;;;;;18.13;48.99;102451.78;5024086;28;20033;-82
2023/04/17 11:43:06;;;;;;;25.10;21.00;;;;;;;17.54;50.10;102452.41;5024059;28;20025;-81
2023/04/17 11:45:33;;;;;;;24.17;20.33;;;;;;;17.28;50.15;102462.75;5022128;28;20029;-81
2023/04/17 11:47:58;;;;;;;23.55;21.05;;;;;;;17.76;49.96;102458.34;5023313;28;20510;-81
2023/04/17 11:50:28;;;;;;;23.85;21.35;;;;;;;19.18;46.88;102449.16;5026669;28;20036;-80
2023/04/17 11:52:59;;;;;;;25.25;22.48;;;;;;;19.92;45.09;102458.06;5016713;28;20029;-79
2023/04/17 11:55:29;;;;;;;26.52;22.80;;;;;;;20.81;43.86;102451.16;5016599;28;20033;-81
2023/04/17 11:57:55;;;;;;;27.30;23.90;;;;;;;21.76;40.85;102455.31;5019606;28;20026;-80
2023/04/17 12:00:26;;;;;;;27.02;23.63;;;;;;;21.08;41.57;102456.53;5026666;28;20044;-81
2023/04/17 12:02:52;;;;;;;26.75;23.80;;;;;;;19.52;44.42;102447.94;5018783;28;20325;-81
2023/04/17 12:05:17;;;;;;;28.00;25.00;;;;;;;19.31;45.79;102442.06;5019071;28;20532;-80
2023/04/17 12:07:43;;;;;;;27.02;23.67;;;;;;;20.76;43.05;102447.06;5024723;28;20056;-81
2023/04/17 12:10:09;;;;;;;27.52;24.30;;;;;;;20.36;42.70;102445.19;5020158;28;20577;-80
2023/04/17 12:12:35;;;;;;;26.80;23.40;;;;;;;19.87;43.76;102444.84;5020999;28;20783;-80
2023/04/17 12:15:00;;;;;;;27.30;21.80;;;;;;;19.11;43.97;102448.69;5019241;28;20140;-80
2023/04/17 12:17:26;;;;;;;22.73;20.33;;;;;;;19.10;42.98;102449.66;5020190;28;20053;-81
2023/04/17 12:19:52;;;;;;;24.67;22.00;;;;;;;19.17;43.79;102463.63;5018738;28;20359;-82
2023/04/17 12:22:17;;;;;;;26.15;22.65;;;;;;;18.60;43.81;102458.94;5023531;28;20101;-81
2023/04/17 12:24:42;;;;;;;25.63;21.90;;;;;;;17.88;45.16;102465.75;5014897;28;20399;-82
2023/04/17 12:27:08;;;;;;;28.40;24.25;;;;;;;17.45;47.38;102460.97;5022008;28;20478;-80
2023/04/17 12:29:33;;;;;;;28.58;24.35;;;;;;;16.82;50.00;102467.84;5023757;28;20041;-79
2023/04/17 12:31:58;;;;;;;29.13;24.90;;;;;;;16.63;51.48;102470.56;5023395;28;20030;-80
2023/04/17 12:34:24;;;;;;;30.55;26.15;;;;;;;16.66;51.63;102467.72;5022460;28;20029;-80
2023/04/17 12:36:49;;;;;;;29.10;25.75;;;;;;;17.22;50.87;102463.06;5014610;28;20472;-80
2023/04/17 12:39:15;;;;;;;29.08;25.48;;;;;;;18.50;48.81;102455.03;5024556;28;20502;-80
2023/04/17 12:41:41;;;;;;;27.55;24.55;;;;;;;19.69;43.78;102454.13;5026736;28;20025;-80
2023/04/17 12:44:06;;;;;;;26.60;23.73;;;;;;;20.48;43.20;102454.34;5018645;28;20057;-82
2023/04/17 12:46:31;;;;;;;25.98;23.15;;;;;;;21.14;40.13;102455.22;5015131;28;20029;-80
2023/04/17 12:48:59;;;;;;;25.73;22.90;;;;;;;21.15;39.99;102454.25;5023854;28;20040;-80
2023/04/17 12:51:26;;;;;;;25.10;22.50;;;;;;;20.20;41.05;102446.31;5024296;28;20121;-80